sensor_id;sensor_type;location;lat;lon;timestamp;P1;durP1;ratioP1;P2;durP2;ratioP2
13343;SDS011;6741;48.964;9.406;2023-12-22T00:02:08;0.70;;;0.70;;
13343;SDS011;6741;48.964;9.406;2023-12-22T00:04:35;1.37;;;1.13;;
13343;SDS011;6741;48.964;9.406;2023-12-22T00:07:02;0.90;;;0.80;;
13343;SDS011;6741;48.964;9.406;2023-12-22T00:09:28;0.80;;;0.70;;
13343;SDS011;6741;48.964;9.406;2023-12-22T00:11:57;3.07;;;1.00;;
13343;SDS011;6741;48.964;9.406;2023-12-22T00:14:24;2.40;;;1.23;;
13343;SDS011;6741;48.964;9.406;2023-12-22T00:16:50;1.90;;;1.30;;
13343;SDS011;6741;48.964;9.406;2023-12-22T00:19:17;2.93;;;1.13;;
13343;SDS011;6741;48.964;9.406;2023-12-22T00:21:44;3.40;;;1.33;;
13343;SDS011;6741;48.964;9.406;2023-12-22T00:24:11;0.70;;;0.70;;
13343;SDS011;6741;48.964;9.406;2023-12-22T00:26:38;1.80;;;0.63;;
13343;SDS011;6741;48.964;9.406;2023-12-22T00:29:06;2.40;;;0.90;;
13343;SDS011;6741;48.964;9.406;2023-12-22T00:31:33;1.60;;;0.53;;
13343;SDS011;6741;48.964;9.406;2023-12-22T00:34:00;2.00;;;0.77;;
13343;SDS011;6741;48.964;9.406;2023-12-22T00:36:27;1.70;;;0.63;;
13343;SDS011;6741;48.964;9.406;2023-12-22T00:38:54;1.80;;;0.60;;
13343;SDS011;6741;48.964;9.406;2023-12-22T00:41:21;2.77;;;0.87;;
13343;SDS011;6741;48.964;9.406;2023-12-22T00:43:47;0.80;;;0.50;;
13343;SDS011;6741;48.964;9.406;2023-12-22T00:46:16;0.37;;;0.37;;
13343;SDS011;6741;48.964;9.406;2023-12-22T00:48:42;0.57;;;0.30;;
13343;SDS011;6741;48.964;9.406;2023-12-22T00:51:10;1.73;;;0.60;;
13343;SDS011;6741;48.964;9.406;2023-12-22T00:53:36;0.57;;;0.57;;
13343;SDS011;6741;48.964;9.406;2023-12-22T00:56:03;0.40;;;0.40;;
13343;SDS011;6741;48.964;9.406;2023-12-22T00:58:31;2.83;;;0.70;;
13343;SDS011;6741;48.964;9.406;2023-12-22T01:00:58;1.03;;;0.47;;
13343;SDS011;6741;48.964;9.406;2023-12-22T01:03:26;0.30;;;0.30;;
13343;SDS011;6741;48.964;9.406;2023-12-22T01:05:53;0.97;;;0.70;;
13343;SDS011;6741;48.964;9.406;2023-12-22T01:08:20;1.47;;;0.80;;
13343;SDS011;6741;48.964;9.406;2023-12-22T01:10:47;1.30;;;1.00;;
13343;SDS011;6741;48.964;9.406;2023-12-22T01:13:14;1.10;;;0.90;;
13343;SDS011;6741;48.964;9.406;2023-12-22T01:15:41;1.10;;;0.90;;
13343;SDS011;6741;48.964;9.406;2023-12-22T01:18:08;1.20;;;0.63;;
13343;SDS011;6741;48.964;9.406;2023-12-22T01:20:37;0.83;;;0.70;;
13343;SDS011;6741;48.964;9.406;2023-12-22T01:23:04;1.30;;;0.80;;
13343;SDS011;6741;48.964;9.406;2023-12-22T01:25:31;0.90;;;0.73;;
13343;SDS011;6741;48.964;9.406;2023-12-22T01:27:58;1.70;;;0.80;;
13343;SDS011;6741;48.964;9.406;2023-12-22T01:30:25;2.17;;;1.20;;
13343;SDS011;6741;48.964;9.406;2023-12-22T01:32:51;2.03;;;1.10;;
13343;SDS011;6741;48.964;9.406;2023-12-22T01:35:18;2.70;;;1.30;;
13343;SDS011;6741;48.964;9.406;2023-12-22T01:37:46;2.83;;;1.10;;
13343;SDS011;6741;48.964;9.406;2023-12-22T01:40:14;1.10;;;1.00;;
13343;SDS011;6741;48.964;9.406;2023-12-22T01:42:41;0.90;;;0.90;;
13343;SDS011;6741;48.964;9.406;2023-12-22T01:45:08;3.43;;;1.10;;
13343;SDS011;6741;48.964;9.406;2023-12-22T01:47:35;1.00;;;1.00;;
13343;SDS011;6741;48.964;9.406;2023-12-22T01:50:03;1.30;;;1.00;;
13343;SDS011;6741;48.964;9.406;2023-12-22T01:52:31;1.57;;;1.07;;
13343;SDS011;6741;48.964;9.406;2023-12-22T01:54:59;1.57;;;1.00;;
13343;SDS011;6741;48.964;9.406;2023-12-22T01:57:27;1.70;;;0.90;;
13343;SDS011;6741;48.964;9.406;2023-12-22T01:59:54;1.17;;;0.83;;
13343;SDS011;6741;48.964;9.406;2023-12-22T02:02:23;1.37;;;0.93;;
13343;SDS011;6741;48.964;9.406;2023-12-22T02:04:50;0.93;;;0.90;;
13343;SDS011;6741;48.964;9.406;2023-12-22T02:07:17;1.87;;;0.90;;
13343;SDS011;6741;48.964;9.406;2023-12-22T02:09:44;1.13;;;1.03;;
13343;SDS011;6741;48.964;9.406;2023-12-22T02:12:12;2.57;;;1.23;;
13343;SDS011;6741;48.964;9.406;2023-12-22T02:14:39;6.13;;;1.23;;
13343;SDS011;6741;48.964;9.406;2023-12-22T02:17:08;2.47;;;1.13;;
13343;SDS011;6741;48.964;9.406;2023-12-22T02:19:47;1.20;;;1.10;;
13343;SDS011;6741;48.964;9.406;2023-12-22T02:22:14;1.63;;;1.20;;
13343;SDS011;6741;48.964;9.406;2023-12-22T02:24:42;2.63;;;1.53;;
13343;SDS011;6741;48.964;9.406;2023-12-22T02:27:14;4.33;;;2.13;;
13343;SDS011;6741;48.964;9.406;2023-12-22T02:29:48;3.30;;;2.30;;
13343;SDS011;6741;48.964;9.406;2023-12-22T02:32:21;1.93;;;1.83;;
13343;SDS011;6741;48.964;9.406;2023-12-22T02:34:53;3.30;;;1.50;;
13343;SDS011;6741;48.964;9.406;2023-12-22T02:37:22;2.70;;;1.50;;
13343;SDS011;6741;48.964;9.406;2023-12-22T02:39:51;2.27;;;1.70;;
13343;SDS011;6741;48.964;9.406;2023-12-22T02:42:19;1.83;;;1.50;;
13343;SDS011;6741;48.964;9.406;2023-12-22T02:44:49;3.77;;;1.20;;
13343;SDS011;6741;48.964;9.406;2023-12-22T02:47:17;3.40;;;1.60;;
13343;SDS011;6741;48.964;9.406;2023-12-22T02:49:44;3.87;;;1.60;;
13343;SDS011;6741;48.964;9.406;2023-12-22T02:52:11;4.30;;;1.57;;
13343;SDS011;6741;48.964;9.406;2023-12-22T02:54:38;5.37;;;1.53;;
13343;SDS011;6741;48.964;9.406;2023-12-22T02:57:06;2.10;;;0.80;;
13343;SDS011;6741;48.964;9.406;2023-12-22T02:59:34;2.43;;;1.00;;
13343;SDS011;6741;48.964;9.406;2023-12-22T03:02:00;3.70;;;1.13;;
13343;SDS011;6741;48.964;9.406;2023-12-22T03:04:27;2.40;;;0.87;;
13343;SDS011;6741;48.964;9.406;2023-12-22T03:06:54;3.63;;;1.10;;
13343;SDS011;6741;48.964;9.406;2023-12-22T03:09:21;2.97;;;1.50;;
13343;SDS011;6741;48.964;9.406;2023-12-22T03:11:48;2.93;;;1.00;;
13343;SDS011;6741;48.964;9.406;2023-12-22T03:14:18;3.67;;;1.10;;
13343;SDS011;6741;48.964;9.406;2023-12-22T03:16:45;2.73;;;1.30;;
13343;SDS011;6741;48.964;9.406;2023-12-22T03:19:11;5.67;;;1.23;;
13343;SDS011;6741;48.964;9.406;2023-12-22T03:21:38;2.70;;;0.80;;
13343;SDS011;6741;48.964;9.406;2023-12-22T03:24:05;3.80;;;1.13;;
13343;SDS011;6741;48.964;9.406;2023-12-22T03:26:32;3.43;;;1.33;;
13343;SDS011;6741;48.964;9.406;2023-12-22T03:28:59;4.17;;;1.00;;
13343;SDS011;6741;48.964;9.406;2023-12-22T03:31:27;3.00;;;1.03;;
13343;SDS011;6741;48.964;9.406;2023-12-22T03:33:54;2.47;;;1.00;;
13343;SDS011;6741;48.964;9.406;2023-12-22T03:36:21;1.73;;;1.23;;
13343;SDS011;6741;48.964;9.406;2023-12-22T03:38:48;2.90;;;1.73;;
13343;SDS011;6741;48.964;9.406;2023-12-22T03:41:15;3.97;;;1.50;;
13343;SDS011;6741;48.964;9.406;2023-12-22T03:43:41;4.70;;;1.00;;
13343;SDS011;6741;48.964;9.406;2023-12-22T03:46:08;2.50;;;1.00;;
13343;SDS011;6741;48.964;9.406;2023-12-22T03:48:37;3.03;;;1.20;;
13343;SDS011;6741;48.964;9.406;2023-12-22T03:51:03;2.60;;;0.87;;
13343;SDS011;6741;48.964;9.406;2023-12-22T03:53:30;2.93;;;1.10;;
13343;SDS011;6741;48.964;9.406;2023-12-22T03:55:57;3.43;;;1.07;;
13343;SDS011;6741;48.964;9.406;2023-12-22T03:58:24;4.53;;;1.87;;
13343;SDS011;6741;48.964;9.406;2023-12-22T04:00:51;5.43;;;1.20;;
13343;SDS011;6741;48.964;9.406;2023-12-22T04:03:18;4.87;;;1.30;;
13343;SDS011;6741;48.964;9.406;2023-12-22T04:05:46;4.57;;;1.23;;
13343;SDS011;6741;48.964;9.406;2023-12-22T04:08:13;1.70;;;0.80;;
13343;SDS011;6741;48.964;9.406;2023-12-22T04:10:40;1.83;;;0.90;;
13343;SDS011;6741;48.964;9.406;2023-12-22T04:13:08;4.00;;;1.57;;
13343;SDS011;6741;48.964;9.406;2023-12-22T04:15:35;6.33;;;1.50;;
13343;SDS011;6741;48.964;9.406;2023-12-22T04:18:02;3.57;;;1.10;;
13343;SDS011;6741;48.964;9.406;2023-12-22T04:20:29;3.63;;;1.17;;
13343;SDS011;6741;48.964;9.406;2023-12-22T04:22:58;3.17;;;1.30;;
13343;SDS011;6741;48.964;9.406;2023-12-22T04:25:24;2.83;;;1.60;;
13343;SDS011;6741;48.964;9.406;2023-12-22T04:27:51;3.37;;;1.27;;
13343;SDS011;6741;48.964;9.406;2023-12-22T04:30:18;1.70;;;0.93;;
13343;SDS011;6741;48.964;9.406;2023-12-22T04:32:45;5.37;;;1.40;;
13343;SDS011;6741;48.964;9.406;2023-12-22T04:35:12;2.43;;;1.00;;
13343;SDS011;6741;48.964;9.406;2023-12-22T04:37:39;5.30;;;1.17;;
13343;SDS011;6741;48.964;9.406;2023-12-22T04:40:08;2.20;;;0.87;;
13343;SDS011;6741;48.964;9.406;2023-12-22T04:42:35;1.30;;;0.87;;
13343;SDS011;6741;48.964;9.406;2023-12-22T04:45:02;2.03;;;0.80;;
13343;SDS011;6741;48.964;9.406;2023-12-22T04:47:29;1.47;;;0.47;;
13343;SDS011;6741;48.964;9.406;2023-12-22T04:49:56;1.43;;;1.00;;
13343;SDS011;6741;48.964;9.406;2023-12-22T04:52:23;2.47;;;0.87;;
13343;SDS011;6741;48.964;9.406;2023-12-22T04:54:50;2.30;;;0.90;;
13343;SDS011;6741;48.964;9.406;2023-12-22T04:57:18;4.33;;;1.27;;
13343;SDS011;6741;48.964;9.406;2023-12-22T04:59:47;2.97;;;1.43;;
13343;SDS011;6741;48.964;9.406;2023-12-22T05:02:15;5.63;;;1.33;;
13343;SDS011;6741;48.964;9.406;2023-12-22T05:04:42;4.20;;;1.37;;
13343;SDS011;6741;48.964;9.406;2023-12-22T05:07:09;4.87;;;1.57;;
13343;SDS011;6741;48.964;9.406;2023-12-22T05:09:36;5.33;;;1.23;;
13343;SDS011;6741;48.964;9.406;2023-12-22T05:12:03;3.33;;;1.23;;
13343;SDS011;6741;48.964;9.406;2023-12-22T05:14:31;4.20;;;1.43;;
13343;SDS011;6741;48.964;9.406;2023-12-22T05:16:58;4.43;;;1.77;;
13343;SDS011;6741;48.964;9.406;2023-12-22T05:19:25;3.93;;;1.30;;
13343;SDS011;6741;48.964;9.406;2023-12-22T05:21:51;2.47;;;1.27;;
13343;SDS011;6741;48.964;9.406;2023-12-22T05:24:21;2.37;;;0.93;;
13343;SDS011;6741;48.964;9.406;2023-12-22T05:26:47;5.30;;;1.57;;
13343;SDS011;6741;48.964;9.406;2023-12-22T05:29:14;3.23;;;1.07;;
13343;SDS011;6741;48.964;9.406;2023-12-22T05:31:43;5.77;;;1.83;;
13343;SDS011;6741;48.964;9.406;2023-12-22T05:34:09;3.10;;;1.30;;
13343;SDS011;6741;48.964;9.406;2023-12-22T05:36:36;5.07;;;1.50;;
13343;SDS011;6741;48.964;9.406;2023-12-22T05:39:03;3.33;;;1.27;;
13343;SDS011;6741;48.964;9.406;2023-12-22T05:41:33;4.87;;;1.30;;
13343;SDS011;6741;48.964;9.406;2023-12-22T05:44:01;7.17;;;1.73;;
13343;SDS011;6741;48.964;9.406;2023-12-22T05:46:28;3.83;;;1.57;;
13343;SDS011;6741;48.964;9.406;2023-12-22T05:48:56;1.30;;;0.90;;
13343;SDS011;6741;48.964;9.406;2023-12-22T05:51:24;1.33;;;0.90;;
13343;SDS011;6741;48.964;9.406;2023-12-22T05:53:51;1.03;;;0.80;;
13343;SDS011;6741;48.964;9.406;2023-12-22T05:56:19;2.80;;;1.17;;
13343;SDS011;6741;48.964;9.406;2023-12-22T05:58:47;2.53;;;1.20;;
13343;SDS011;6741;48.964;9.406;2023-12-22T06:01:15;1.87;;;1.20;;
13343;SDS011;6741;48.964;9.406;2023-12-22T06:03:43;4.00;;;1.23;;
13343;SDS011;6741;48.964;9.406;2023-12-22T06:06:11;4.27;;;1.73;;
13343;SDS011;6741;48.964;9.406;2023-12-22T06:08:39;5.90;;;1.70;;
13343;SDS011;6741;48.964;9.406;2023-12-22T06:11:06;2.97;;;1.40;;
13343;SDS011;6741;48.964;9.406;2023-12-22T06:13:33;3.10;;;1.63;;
13343;SDS011;6741;48.964;9.406;2023-12-22T06:16:00;6.10;;;1.70;;
13343;SDS011;6741;48.964;9.406;2023-12-22T06:18:30;11.67;;;2.83;;
13343;SDS011;6741;48.964;9.406;2023-12-22T06:20:57;6.10;;;3.63;;
13343;SDS011;6741;48.964;9.406;2023-12-22T06:23:25;8.50;;;2.23;;
13343;SDS011;6741;48.964;9.406;2023-12-22T06:25:52;6.37;;;2.80;;
13343;SDS011;6741;48.964;9.406;2023-12-22T06:28:19;7.37;;;2.77;;
13343;SDS011;6741;48.964;9.406;2023-12-22T06:30:46;7.93;;;2.00;;
13343;SDS011;6741;48.964;9.406;2023-12-22T06:33:13;9.30;;;2.83;;
13343;SDS011;6741;48.964;9.406;2023-12-22T06:35:40;10.20;;;2.40;;
13343;SDS011;6741;48.964;9.406;2023-12-22T06:38:07;5.67;;;1.97;;
13343;SDS011;6741;48.964;9.406;2023-12-22T06:40:37;5.37;;;2.27;;
13343;SDS011;6741;48.964;9.406;2023-12-22T06:43:04;6.20;;;2.20;;
13343;SDS011;6741;48.964;9.406;2023-12-22T06:45:31;4.07;;;1.90;;
13343;SDS011;6741;48.964;9.406;2023-12-22T06:47:58;11.23;;;2.60;;
13343;SDS011;6741;48.964;9.406;2023-12-22T06:50:25;5.27;;;1.80;;
13343;SDS011;6741;48.964;9.406;2023-12-22T06:52:52;5.60;;;2.67;;
13343;SDS011;6741;48.964;9.406;2023-12-22T06:55:20;6.23;;;2.10;;
13343;SDS011;6741;48.964;9.406;2023-12-22T06:57:49;10.57;;;2.30;;
13343;SDS011;6741;48.964;9.406;2023-12-22T07:00:16;9.00;;;1.80;;
13343;SDS011;6741;48.964;9.406;2023-12-22T07:02:43;7.43;;;1.90;;
13343;SDS011;6741;48.964;9.406;2023-12-22T07:05:31;6.50;;;2.43;;
13343;SDS011;6741;48.964;9.406;2023-12-22T07:08:01;4.47;;;1.70;;
13343;SDS011;6741;48.964;9.406;2023-12-22T07:10:30;7.33;;;2.53;;
13343;SDS011;6741;48.964;9.406;2023-12-22T07:12:58;9.50;;;2.83;;
13343;SDS011;6741;48.964;9.406;2023-12-22T07:15:25;9.10;;;2.10;;
13343;SDS011;6741;48.964;9.406;2023-12-22T07:17:54;6.23;;;2.13;;
13343;SDS011;6741;48.964;9.406;2023-12-22T07:20:22;4.23;;;1.83;;
13343;SDS011;6741;48.964;9.406;2023-12-22T07:22:49;5.67;;;2.00;;
13343;SDS011;6741;48.964;9.406;2023-12-22T07:25:19;5.23;;;1.63;;
13343;SDS011;6741;48.964;9.406;2023-12-22T07:27:45;8.10;;;2.10;;
13343;SDS011;6741;48.964;9.406;2023-12-22T07:30:14;11.33;;;2.10;;
13343;SDS011;6741;48.964;9.406;2023-12-22T07:32:45;5.40;;;2.03;;
13343;SDS011;6741;48.964;9.406;2023-12-22T07:35:14;7.27;;;2.50;;
13343;SDS011;6741;48.964;9.406;2023-12-22T07:37:41;6.30;;;1.67;;
13343;SDS011;6741;48.964;9.406;2023-12-22T07:40:08;4.30;;;1.90;;
13343;SDS011;6741;48.964;9.406;2023-12-22T07:42:36;4.87;;;2.23;;
13343;SDS011;6741;48.964;9.406;2023-12-22T07:45:04;7.40;;;2.43;;
13343;SDS011;6741;48.964;9.406;2023-12-22T07:47:33;7.60;;;2.13;;
13343;SDS011;6741;48.964;9.406;2023-12-22T07:50:01;6.53;;;1.90;;
13343;SDS011;6741;48.964;9.406;2023-12-22T07:52:28;7.33;;;2.27;;
13343;SDS011;6741;48.964;9.406;2023-12-22T07:54:55;8.20;;;2.27;;
13343;SDS011;6741;48.964;9.406;2023-12-22T07:57:22;8.07;;;2.33;;
13343;SDS011;6741;48.964;9.406;2023-12-22T07:59:48;8.83;;;3.13;;
13343;SDS011;6741;48.964;9.406;2023-12-22T08:02:15;7.60;;;1.87;;
13343;SDS011;6741;48.964;9.406;2023-12-22T08:04:44;5.40;;;1.83;;
13343;SDS011;6741;48.964;9.406;2023-12-22T08:07:11;8.40;;;2.23;;
13343;SDS011;6741;48.964;9.406;2023-12-22T08:09:38;10.00;;;2.30;;
13343;SDS011;6741;48.964;9.406;2023-12-22T08:12:05;5.30;;;1.83;;
13343;SDS011;6741;48.964;9.406;2023-12-22T08:14:33;7.00;;;2.47;;
13343;SDS011;6741;48.964;9.406;2023-12-22T08:17:00;7.57;;;1.80;;
13343;SDS011;6741;48.964;9.406;2023-12-22T08:19:27;7.67;;;1.87;;
13343;SDS011;6741;48.964;9.406;2023-12-22T08:21:55;6.33;;;1.87;;
13343;SDS011;6741;48.964;9.406;2023-12-22T08:24:22;5.30;;;2.33;;
13343;SDS011;6741;48.964;9.406;2023-12-22T08:26:49;6.90;;;2.17;;
13343;SDS011;6741;48.964;9.406;2023-12-22T08:29:16;5.70;;;1.63;;
13343;SDS011;6741;48.964;9.406;2023-12-22T08:31:43;5.90;;;1.70;;
13343;SDS011;6741;48.964;9.406;2023-12-22T08:34:11;12.23;;;2.10;;
13343;SDS011;6741;48.964;9.406;2023-12-22T08:36:37;3.93;;;1.53;;
13343;SDS011;6741;48.964;9.406;2023-12-22T08:39:06;6.37;;;2.50;;
13343;SDS011;6741;48.964;9.406;2023-12-22T08:41:32;10.17;;;2.17;;
13343;SDS011;6741;48.964;9.406;2023-12-22T08:44:02;6.73;;;2.30;;
13343;SDS011;6741;48.964;9.406;2023-12-22T08:46:29;6.63;;;1.93;;
13343;SDS011;6741;48.964;9.406;2023-12-22T08:48:56;6.87;;;1.93;;
13343;SDS011;6741;48.964;9.406;2023-12-22T08:51:24;7.77;;;2.27;;
13343;SDS011;6741;48.964;9.406;2023-12-22T08:53:51;5.90;;;1.90;;
13343;SDS011;6741;48.964;9.406;2023-12-22T08:56:21;6.83;;;1.87;;
13343;SDS011;6741;48.964;9.406;2023-12-22T08:58:48;11.77;;;2.53;;
13343;SDS011;6741;48.964;9.406;2023-12-22T09:01:17;9.47;;;2.60;;
13343;SDS011;6741;48.964;9.406;2023-12-22T09:03:45;5.30;;;2.00;;
13343;SDS011;6741;48.964;9.406;2023-12-22T09:06:13;12.73;;;2.40;;
13343;SDS011;6741;48.964;9.406;2023-12-22T09:08:40;9.50;;;3.03;;
13343;SDS011;6741;48.964;9.406;2023-12-22T09:11:07;10.70;;;2.37;;
13343;SDS011;6741;48.964;9.406;2023-12-22T09:13:36;12.50;;;2.27;;
13343;SDS011;6741;48.964;9.406;2023-12-22T09:16:03;11.17;;;3.20;;
13343;SDS011;6741;48.964;9.406;2023-12-22T09:18:31;8.47;;;3.03;;
13343;SDS011;6741;48.964;9.406;2023-12-22T09:20:58;10.70;;;2.80;;
13343;SDS011;6741;48.964;9.406;2023-12-22T09:23:24;6.00;;;2.40;;
13343;SDS011;6741;48.964;9.406;2023-12-22T09:25:51;9.87;;;2.50;;
13343;SDS011;6741;48.964;9.406;2023-12-22T09:28:19;2.87;;;1.20;;
13343;SDS011;6741;48.964;9.406;2023-12-22T09:30:47;10.03;;;2.03;;
13343;SDS011;6741;48.964;9.406;2023-12-22T09:33:14;10.13;;;2.33;;
13343;SDS011;6741;48.964;9.406;2023-12-22T09:35:41;6.20;;;2.00;;
13343;SDS011;6741;48.964;9.406;2023-12-22T09:38:08;5.40;;;2.97;;
13343;SDS011;6741;48.964;9.406;2023-12-22T09:40:37;14.57;;;2.93;;
13343;SDS011;6741;48.964;9.406;2023-12-22T09:43:05;9.77;;;3.17;;
13343;SDS011;6741;48.964;9.406;2023-12-22T09:45:33;10.33;;;2.33;;
13343;SDS011;6741;48.964;9.406;2023-12-22T09:48:02;10.37;;;3.43;;
13343;SDS011;6741;48.964;9.406;2023-12-22T09:50:31;11.93;;;3.70;;
13343;SDS011;6741;48.964;9.406;2023-12-22T09:53:00;8.73;;;2.63;;
13343;SDS011;6741;48.964;9.406;2023-12-22T09:55:28;15.07;;;3.97;;
13343;SDS011;6741;48.964;9.406;2023-12-22T09:57:57;14.33;;;3.23;;
13343;SDS011;6741;48.964;9.406;2023-12-22T10:00:25;14.03;;;3.47;;
13343;SDS011;6741;48.964;9.406;2023-12-22T10:02:55;9.03;;;3.10;;
13343;SDS011;6741;48.964;9.406;2023-12-22T10:05:23;7.57;;;2.57;;
13343;SDS011;6741;48.964;9.406;2023-12-22T10:07:50;14.93;;;3.13;;
13343;SDS011;6741;48.964;9.406;2023-12-22T10:10:17;11.73;;;3.13;;
13343;SDS011;6741;48.964;9.406;2023-12-22T10:12:45;13.03;;;3.27;;
13343;SDS011;6741;48.964;9.406;2023-12-22T10:15:13;12.23;;;3.27;;
13343;SDS011;6741;48.964;9.406;2023-12-22T10:17:43;8.83;;;3.47;;
13343;SDS011;6741;48.964;9.406;2023-12-22T10:20:11;7.83;;;2.83;;
13343;SDS011;6741;48.964;9.406;2023-12-22T10:22:39;9.33;;;3.10;;
13343;SDS011;6741;48.964;9.406;2023-12-22T10:25:06;12.20;;;3.20;;
13343;SDS011;6741;48.964;9.406;2023-12-22T10:27:35;11.63;;;2.97;;
13343;SDS011;6741;48.964;9.406;2023-12-22T10:30:03;11.87;;;3.50;;
13343;SDS011;6741;48.964;9.406;2023-12-22T10:32:30;9.20;;;2.63;;
13343;SDS011;6741;48.964;9.406;2023-12-22T10:34:57;14.27;;;3.53;;
13343;SDS011;6741;48.964;9.406;2023-12-22T10:37:24;16.43;;;3.90;;
13343;SDS011;6741;48.964;9.406;2023-12-22T10:39:53;10.27;;;3.30;;
13343;SDS011;6741;48.964;9.406;2023-12-22T10:42:20;12.17;;;3.00;;
13343;SDS011;6741;48.964;9.406;2023-12-22T10:44:47;10.20;;;3.17;;
13343;SDS011;6741;48.964;9.406;2023-12-22T10:47:15;6.93;;;3.00;;
13343;SDS011;6741;48.964;9.406;2023-12-22T10:49:43;11.10;;;4.37;;
13343;SDS011;6741;48.964;9.406;2023-12-22T10:52:15;7.77;;;2.73;;
13343;SDS011;6741;48.964;9.406;2023-12-22T10:54:43;12.37;;;3.70;;
13343;SDS011;6741;48.964;9.406;2023-12-22T10:57:11;10.10;;;3.17;;
13343;SDS011;6741;48.964;9.406;2023-12-22T10:59:38;16.73;;;3.60;;
13343;SDS011;6741;48.964;9.406;2023-12-22T11:02:15;15.03;;;3.20;;
13343;SDS011;6741;48.964;9.406;2023-12-22T11:04:46;12.13;;;3.17;;
13343;SDS011;6741;48.964;9.406;2023-12-22T11:07:19;9.37;;;2.80;;
13343;SDS011;6741;48.964;9.406;2023-12-22T11:09:49;16.17;;;3.30;;
13343;SDS011;6741;48.964;9.406;2023-12-22T11:12:19;10.57;;;3.53;;
13343;SDS011;6741;48.964;9.406;2023-12-22T11:14:47;14.27;;;3.37;;
13343;SDS011;6741;48.964;9.406;2023-12-22T11:17:18;7.63;;;3.27;;
13343;SDS011;6741;48.964;9.406;2023-12-22T11:19:47;9.23;;;2.57;;
13343;SDS011;6741;48.964;9.406;2023-12-22T11:22:16;8.20;;;2.53;;
13343;SDS011;6741;48.964;9.406;2023-12-22T11:24:44;10.97;;;2.53;;
13343;SDS011;6741;48.964;9.406;2023-12-22T11:27:13;7.30;;;2.90;;
13343;SDS011;6741;48.964;9.406;2023-12-22T11:29:46;8.77;;;2.53;;
13343;SDS011;6741;48.964;9.406;2023-12-22T11:32:15;12.37;;;2.80;;
13343;SDS011;6741;48.964;9.406;2023-12-22T11:34:44;7.30;;;2.30;;
13343;SDS011;6741;48.964;9.406;2023-12-22T11:37:11;10.43;;;2.40;;
13343;SDS011;6741;48.964;9.406;2023-12-22T11:39:39;14.90;;;3.70;;
13343;SDS011;6741;48.964;9.406;2023-12-22T11:42:06;5.67;;;2.10;;
13343;SDS011;6741;48.964;9.406;2023-12-22T11:44:36;9.60;;;2.30;;
13343;SDS011;6741;48.964;9.406;2023-12-22T11:47:05;7.50;;;2.67;;
13343;SDS011;6741;48.964;9.406;2023-12-22T11:49:33;10.67;;;2.93;;
13343;SDS011;6741;48.964;9.406;2023-12-22T11:52:09;5.20;;;2.50;;
13343;SDS011;6741;48.964;9.406;2023-12-22T11:57:32;7.10;;;2.07;;
13343;SDS011;6741;48.964;9.406;2023-12-22T12:00:01;10.40;;;2.30;;
13343;SDS011;6741;48.964;9.406;2023-12-22T12:02:32;6.30;;;2.20;;
13343;SDS011;6741;48.964;9.406;2023-12-22T12:05:00;4.57;;;1.70;;
13343;SDS011;6741;48.964;9.406;2023-12-22T12:07:41;8.73;;;2.10;;
13343;SDS011;6741;48.964;9.406;2023-12-22T12:10:10;3.47;;;1.80;;
13343;SDS011;6741;48.964;9.406;2023-12-22T12:12:36;3.40;;;1.23;;
13343;SDS011;6741;48.964;9.406;2023-12-22T12:15:10;4.37;;;1.47;;
13343;SDS011;6741;48.964;9.406;2023-12-22T12:17:41;5.67;;;1.90;;
13343;SDS011;6741;48.964;9.406;2023-12-22T12:20:09;4.83;;;1.30;;
13343;SDS011;6741;48.964;9.406;2023-12-22T12:22:35;6.80;;;1.83;;
13343;SDS011;6741;48.964;9.406;2023-12-22T12:25:06;6.20;;;1.57;;
13343;SDS011;6741;48.964;9.406;2023-12-22T12:27:35;5.40;;;1.67;;
13343;SDS011;6741;48.964;9.406;2023-12-22T12:30:07;2.93;;;1.50;;
13343;SDS011;6741;48.964;9.406;2023-12-22T12:32:38;2.83;;;1.47;;
13343;SDS011;6741;48.964;9.406;2023-12-22T12:35:08;4.50;;;1.33;;
13343;SDS011;6741;48.964;9.406;2023-12-22T12:37:35;3.73;;;1.17;;
13343;SDS011;6741;48.964;9.406;2023-12-22T12:40:03;2.53;;;1.10;;
13343;SDS011;6741;48.964;9.406;2023-12-22T12:42:35;2.10;;;0.90;;
13343;SDS011;6741;48.964;9.406;2023-12-22T12:45:03;3.47;;;0.80;;
13343;SDS011;6741;48.964;9.406;2023-12-22T12:47:31;4.10;;;1.17;;
13343;SDS011;6741;48.964;9.406;2023-12-22T12:50:00;3.73;;;1.00;;
13343;SDS011;6741;48.964;9.406;2023-12-22T12:52:27;1.07;;;0.90;;
13343;SDS011;6741;48.964;9.406;2023-12-22T12:54:55;1.93;;;0.80;;
13343;SDS011;6741;48.964;9.406;2023-12-22T12:57:23;0.90;;;0.77;;
13343;SDS011;6741;48.964;9.406;2023-12-22T12:59:50;1.73;;;0.90;;
13343;SDS011;6741;48.964;9.406;2023-12-22T13:02:18;1.20;;;0.80;;
13343;SDS011;6741;48.964;9.406;2023-12-22T13:04:45;2.30;;;0.93;;
13343;SDS011;6741;48.964;9.406;2023-12-22T13:07:14;1.13;;;0.77;;
13343;SDS011;6741;48.964;9.406;2023-12-22T13:09:49;1.60;;;0.90;;
13343;SDS011;6741;48.964;9.406;2023-12-22T13:12:18;1.03;;;0.80;;
13343;SDS011;6741;48.964;9.406;2023-12-22T13:14:46;1.30;;;1.00;;
13343;SDS011;6741;48.964;9.406;2023-12-22T13:17:13;1.33;;;0.63;;
13343;SDS011;6741;48.964;9.406;2023-12-22T13:19:40;0.50;;;0.50;;
13343;SDS011;6741;48.964;9.406;2023-12-22T13:22:07;0.97;;;0.60;;
13343;SDS011;6741;48.964;9.406;2023-12-22T13:24:36;1.07;;;0.70;;
13343;SDS011;6741;48.964;9.406;2023-12-22T13:27:03;1.50;;;0.90;;
13343;SDS011;6741;48.964;9.406;2023-12-22T13:29:41;1.07;;;0.70;;
13343;SDS011;6741;48.964;9.406;2023-12-22T13:32:14;1.93;;;0.83;;
13343;SDS011;6741;48.964;9.406;2023-12-22T13:34:46;3.10;;;0.83;;
13343;SDS011;6741;48.964;9.406;2023-12-22T13:37:14;1.57;;;0.97;;
13343;SDS011;6741;48.964;9.406;2023-12-22T13:39:43;2.00;;;0.80;;
13343;SDS011;6741;48.964;9.406;2023-12-22T13:42:14;1.33;;;0.90;;
13343;SDS011;6741;48.964;9.406;2023-12-22T13:44:42;0.73;;;0.70;;
13343;SDS011;6741;48.964;9.406;2023-12-22T13:47:12;1.87;;;1.13;;
13343;SDS011;6741;48.964;9.406;2023-12-22T13:49:39;1.10;;;0.60;;
13343;SDS011;6741;48.964;9.406;2023-12-22T13:52:07;2.30;;;0.90;;
13343;SDS011;6741;48.964;9.406;2023-12-22T13:54:34;1.20;;;0.60;;
13343;SDS011;6741;48.964;9.406;2023-12-22T13:57:02;1.23;;;0.80;;
13343;SDS011;6741;48.964;9.406;2023-12-22T13:59:32;1.60;;;0.90;;
13343;SDS011;6741;48.964;9.406;2023-12-22T14:01:59;2.10;;;0.90;;
13343;SDS011;6741;48.964;9.406;2023-12-22T14:04:26;0.63;;;0.63;;
13343;SDS011;6741;48.964;9.406;2023-12-22T14:06:54;1.60;;;1.50;;
13343;SDS011;6741;48.964;9.406;2023-12-22T14:09:21;1.07;;;0.97;;
13343;SDS011;6741;48.964;9.406;2023-12-22T14:11:49;2.93;;;2.00;;
13343;SDS011;6741;48.964;9.406;2023-12-22T14:14:18;2.00;;;1.40;;
13343;SDS011;6741;48.964;9.406;2023-12-22T14:16:45;4.73;;;3.07;;
13343;SDS011;6741;48.964;9.406;2023-12-22T14:19:12;1.93;;;1.63;;
13343;SDS011;6741;48.964;9.406;2023-12-22T14:21:39;2.23;;;1.40;;
13343;SDS011;6741;48.964;9.406;2023-12-22T14:24:06;7.63;;;4.77;;
13343;SDS011;6741;48.964;9.406;2023-12-22T14:26:33;5.27;;;3.33;;
13343;SDS011;6741;48.964;9.406;2023-12-22T14:29:20;2.83;;;2.07;;
13343;SDS011;6741;48.964;9.406;2023-12-22T14:31:47;1.20;;;1.17;;
13343;SDS011;6741;48.964;9.406;2023-12-22T14:34:14;3.23;;;2.10;;
13343;SDS011;6741;48.964;9.406;2023-12-22T14:36:42;2.43;;;2.17;;
13343;SDS011;6741;48.964;9.406;2023-12-22T14:39:09;0.90;;;0.90;;
13343;SDS011;6741;48.964;9.406;2023-12-22T14:41:37;0.60;;;0.60;;
13343;SDS011;6741;48.964;9.406;2023-12-22T14:44:05;1.10;;;1.00;;
13343;SDS011;6741;48.964;9.406;2023-12-22T14:46:33;1.57;;;0.93;;
13343;SDS011;6741;48.964;9.406;2023-12-22T14:49:03;1.73;;;1.00;;
13343;SDS011;6741;48.964;9.406;2023-12-22T14:51:34;1.40;;;0.73;;
13343;SDS011;6741;48.964;9.406;2023-12-22T14:54:01;1.00;;;0.63;;
13343;SDS011;6741;48.964;9.406;2023-12-22T14:56:28;4.33;;;1.33;;
13343;SDS011;6741;48.964;9.406;2023-12-22T14:58:55;1.23;;;1.00;;
13343;SDS011;6741;48.964;9.406;2023-12-22T15:01:23;1.90;;;0.93;;
13343;SDS011;6741;48.964;9.406;2023-12-22T15:03:51;3.50;;;1.33;;
13343;SDS011;6741;48.964;9.406;2023-12-22T15:06:18;1.73;;;1.03;;
13343;SDS011;6741;48.964;9.406;2023-12-22T15:08:45;4.10;;;2.00;;